Time;durP1;ratioP1;P1;durP2;ratioP2;P2;SDS_P1;SDS_P2;PMS_P1;PMS_P2;Temp;Humidity;BMP_temperature;BMP_pressure;BME280_temperature;BME280_humidity;BME280_pressure;Samples;Min_cycle;Max_cycle;Signal;HPM_P1;HPM_P2
2023/01/24 00:00:00;;;;;;;20.23;16.42;;;2.70;99.90;;;;;;5094772;28;20426;-47
2023/01/24 00:02:25;;;;;;;21.65;17.13;;;2.70;99.90;;;;;;5093747;28;20043;-45
2023/01/24 00:04:51;;;;;;;24.70;16.17;;;2.70;99.90;;;;;;5094260;28;20138;-46
2023/01/24 00:07:19;;;;;;;22.13;16.67;;;2.70;99.90;;;;;;5094111;28;20058;-45
2023/01/24 00:09:45;;;;;;;21.25;16.23;;;2.70;99.90;;;;;;5094687;28;20055;-47
2023/01/24 00:12:11;;;;;;;21.13;16.85;;;2.70;99.90;;;;;;5093206;28;20052;-47
2023/01/24 00:14:36;;;;;;;22.52;17.08;;;2.70;99.90;;;;;;5094382;28;20052;-47
2023/01/24 00:17:02;;;;;;;20.70;16.05;;;2.80;99.90;;;;;;5075141;28;20049;-44
2023/01/24 00:19:27;;;;;;;23.88;17.15;;;2.80;99.90;;;;;;5094251;28;20047;-45
2023/01/24 00:21:53;;;;;;;22.67;16.20;;;2.80;99.90;;;;;;5093975;28;20055;-45
2023/01/24 00:24:19;;;;;;;24.50;17.20;;;2.80;99.90;;;;;;5075053;28;20499;-49
2023/01/24 00:26:44;;;;;;;22.17;16.90;;;2.80;99.90;;;;;;5075917;28;20047;-45
2023/01/24 00:29:10;;;;;;;22.80;16.45;;;2.80;99.90;;;;;;5093179;28;20411;-47
2023/01/24 00:31:36;;;;;;;21.20;16.73;;;2.70;99.90;;;;;;5093705;28;20058;-45
2023/01/24 00:34:01;;;;;;;19.95;15.75;;;2.70;99.90;;;;;;5093977;28;20047;-46
2023/01/24 00:36:27;;;;;;;21.35;17.40;;;2.70;99.90;;;;;;5094337;28;20453;-46
2023/01/24 00:38:54;;;;;;;21.70;16.80;;;2.70;99.90;;;;;;5093301;28;20761;-45
2023/01/24 00:41:23;;;;;;;19.13;15.63;;;2.70;99.90;;;;;;5094603;28;20043;-46
2023/01/24 00:43:48;;;;;;;22.40;16.58;;;2.70;99.90;;;;;;5094229;28;20486;-47
2023/01/24 00:46:14;;;;;;;19.52;15.23;;;2.70;99.90;;;;;;5094376;28;20131;-50
2023/01/24 00:48:40;;;;;;;20.90;16.05;;;2.70;99.90;;;;;;5093830;28;20985;-45
2023/01/24 00:51:05;;;;;;;20.25;15.77;;;2.70;99.90;;;;;;5074806;28;20321;-46
2023/01/24 00:53:31;;;;;;;20.63;15.82;;;2.70;99.90;;;;;;5093094;28;20047;-49
2023/01/24 00:55:57;;;;;;;19.50;14.90;;;2.70;99.90;;;;;;5093871;28;20136;-46
2023/01/24 00:58:24;;;;;;;20.88;15.75;;;2.70;99.90;;;;;;5092828;28;20085;-45
2023/01/24 01:00:49;;;;;;;21.33;16.15;;;2.70;99.90;;;;;;5094318;28;20222;-45
2023/01/24 01:03:19;;;;;;;23.98;17.10;;;2.70;99.90;;;;;;5094111;28;20040;-45
2023/01/24 01:05:45;;;;;;;23.42;16.98;;;2.70;99.90;;;;;;5094227;28;20051;-48
2023/01/24 01:08:12;;;;;;;23.80;17.80;;;2.70;99.90;;;;;;5092974;28;20696;-48
2023/01/24 01:10:38;;;;;;;22.15;16.50;;;2.70;99.90;;;;;;5093362;28;20367;-47
2023/01/24 01:13:04;;;;;;;27.15;17.63;;;2.70;99.90;;;;;;5093182;28;20054;-46
2023/01/24 01:15:31;;;;;;;23.70;17.50;;;2.70;99.90;;;;;;5093520;28;20047;-48
2023/01/24 01:17:58;;;;;;;21.08;16.25;;;2.70;99.90;;;;;;5093555;28;20557;-45
2023/01/24 01:20:24;;;;;;;21.92;16.48;;;2.60;99.90;;;;;;5093296;28;20082;-45
2023/01/24 01:22:50;;;;;;;26.33;17.90;;;2.60;99.90;;;;;;5075481;28;20059;-46
2023/01/24 01:25:16;;;;;;;23.48;17.50;;;2.60;99.90;;;;;;5075721;28;20044;-46
2023/01/24 01:27:42;;;;;;;21.52;16.50;;;2.60;99.90;;;;;;5092853;28;20509;-45
2023/01/24 01:30:08;;;;;;;21.85;16.67;;;2.60;99.90;;;;;;5093815;28;20632;-47
2023/01/24 01:32:34;;;;;;;21.55;16.77;;;2.60;99.90;;;;;;5092732;28;20056;-45
2023/01/24 01:34:59;;;;;;;22.80;17.17;;;2.60;99.90;;;;;;5093495;28;20058;-46
2023/01/24 01:37:25;;;;;;;23.20;16.10;;;2.60;99.90;;;;;;5093091;28;20087;-46
2023/01/24 01:39:51;;;;;;;23.50;16.63;;;2.60;99.90;;;;;;5093846;28;20563;-47
2023/01/24 01:42:16;;;;;;;24.13;17.90;;;2.60;99.90;;;;;;5096167;28;20062;-48
2023/01/24 01:44:47;;;;;;;25.13;17.50;;;2.60;99.90;;;;;;5097337;28;20048;-45
2023/01/24 01:47:30;;;;;;;22.33;16.67;;;2.60;99.90;;;;;;5097176;28;20347;-46
2023/01/24 01:50:38;;;;;;;23.50;16.52;;;2.60;99.90;;;;;;5096462;28;20044;-46
2023/01/24 01:53:04;;;;;;;21.08;15.73;;;2.60;99.90;;;;;;5080699;28;20135;-49
2023/01/24 01:55:33;;;;;;;23.60;17.00;;;2.70;99.90;;;;;;5097096;28;20467;-46
2023/01/24 01:58:00;;;;;;;22.20;16.30;;;2.70;99.90;;;;;;5096849;28;20055;-46
2023/01/24 02:00:27;;;;;;;25.52;18.05;;;2.70;99.90;;;;;;5061368;28;20055;-47
2023/01/24 02:05:50;;;;;;;21.73;16.80;;;2.70;99.90;;;;;;5087566;28;20055;-47
2023/01/24 02:08:20;;;;;;;23.88;17.27;;;2.70;99.90;;;;;;5096969;28;20507;-45
2023/01/24 02:13:31;;;;;;;22.20;16.08;;;2.70;99.90;;;;;;5096532;28;20108;-45
2023/01/24 02:16:02;;;;;;;24.38;17.70;;;2.70;99.90;;;;;;5077591;28;20048;-45
2023/01/24 02:18:30;;;;;;;24.42;17.08;;;2.70;99.90;;;;;;5095701;28;20043;-46
2023/01/24 02:20:56;;;;;;;22.27;15.95;;;2.70;99.90;;;;;;5077032;28;20164;-46
2023/01/24 02:23:56;;;;;;;22.75;17.15;;;2.70;99.90;;;;;;5096210;28;20780;-48
2023/01/24 02:26:23;;;;;;;22.27;15.85;;;2.70;99.90;;;;;;5095988;28;20047;-49
2023/01/24 02:29:05;;;;;;;22.13;16.30;;;2.70;99.90;;;;;;5096102;28;20096;-44
2023/01/24 02:31:58;;;;;;;23.40;16.10;;;2.70;99.90;;;;;;5083513;28;20048;-45
2023/01/24 02:34:24;;;;;;;21.97;16.77;;;2.70;99.90;;;;;;5096127;28;20509;-45
2023/01/24 02:37:00;;;;;;;19.02;14.85;;;2.70;99.90;;;;;;5095706;28;20556;-47
2023/01/24 02:39:34;;;;;;;20.05;14.93;;;2.70;99.90;;;;;;5083910;28;20335;-46
2023/01/24 02:42:05;;;;;;;19.70;15.13;;;2.80;99.90;;;;;;5095160;28;20070;-46
2023/01/24 02:44:41;;;;;;;19.90;15.23;;;2.80;99.90;;;;;;5076746;28;20066;-46
2023/01/24 02:47:07;;;;;;;20.33;16.05;;;2.80;99.90;;;;;;5095844;28;20055;-44
2023/01/24 02:49:32;;;;;;;22.80;15.55;;;2.70;99.90;;;;;;5095962;28;20051;-47
2023/01/24 02:54:43;;;;;;;19.25;15.50;;;2.80;99.90;;;;;;5095181;28;20517;-45
2023/01/24 02:59:52;;;;;;;19.88;15.10;;;2.80;99.90;;;;;;5095436;28;20510;-46
2023/01/24 03:02:18;;;;;;;20.95;15.25;;;2.80;99.90;;;;;;5092343;28;20195;-46
2023/01/24 03:04:44;;;;;;;20.92;16.92;;;2.80;99.90;;;;;;5094551;28;20044;-46
2023/01/24 03:07:09;;;;;;;21.63;15.02;;;2.80;99.90;;;;;;5093629;28;20147;-45
2023/01/24 03:09:35;;;;;;;20.08;15.48;;;2.80;99.90;;;;;;5095160;28;20047;-44
2023/01/24 03:36:43;;;;;;;20.67;15.15;;;2.80;99.90;;;;;;5094641;28;20051;-47
2023/01/24 03:41:55;;;;;;;18.45;14.77;;;2.80;99.90;;;;;;5094349;28;20160;-45
2023/01/24 03:44:21;;;;;;;20.95;15.73;;;2.80;99.90;;;;;;5095178;28;20039;-46
2023/01/24 03:46:47;;;;;;;19.00;15.45;;;2.80;99.90;;;;;;5076468;28;20688;-44
2023/01/24 03:49:13;;;;;;;20.38;15.25;;;2.80;99.90;;;;;;5075080;28;20059;-46
2023/01/24 03:54:23;;;;;;;22.25;16.23;;;2.80;99.90;;;;;;5094166;28;20467;-46
2023/01/24 03:56:48;;;;;;;20.20;15.65;;;2.80;99.90;;;;;;5093826;28;20051;-46
2023/01/24 03:59:14;;;;;;;19.92;15.43;;;2.80;99.90;;;;;;5094258;28;20150;-44
2023/01/24 04:01:40;;;;;;;17.08;13.35;;;2.80;99.90;;;;;;5093667;28;20488;-48
2023/01/24 04:04:06;;;;;;;16.15;13.00;;;2.80;99.90;;;;;;5094175;28;20043;-46
2023/01/24 04:06:31;;;;;;;16.45;12.60;;;2.80;99.90;;;;;;5093422;28;20047;-46
2023/01/24 04:08:57;;;;;;;18.88;14.50;;;2.80;99.90;;;;;;5094475;28;20463;-45
2023/01/24 04:11:23;;;;;;;18.10;14.82;;;2.80;99.90;;;;;;5093538;28;20051;-45
2023/01/24 04:13:48;;;;;;;18.88;15.18;;;2.80;99.90;;;;;;5094647;28;20040;-46
2023/01/24 04:16:14;;;;;;;22.50;15.65;;;2.80;99.90;;;;;;5093336;28;20047;-45
2023/01/24 04:18:40;;;;;;;21.02;15.77;;;2.80;99.90;;;;;;5093204;28;20132;-46
2023/01/24 04:21:06;;;;;;;19.77;15.43;;;2.80;99.90;;;;;;5092645;28;20594;-46
2023/01/24 04:23:32;;;;;;;20.92;15.35;;;2.80;99.90;;;;;;5093460;28;20058;-46
2023/01/24 04:26:00;;;;;;;18.90;14.20;;;2.80;99.90;;;;;;5093719;28;20143;-46
2023/01/24 04:28:27;;;;;;;19.95;14.82;;;2.80;99.90;;;;;;5074795;28;20668;-46
2023/01/24 04:31:01;;;;;;;20.42;15.23;;;2.80;99.90;;;;;;5093034;28;20595;-46
2023/01/24 04:33:27;;;;;;;19.08;14.82;;;2.70;99.90;;;;;;5093890;28;20130;-44
2023/01/24 04:35:59;;;;;;;20.50;14.52;;;2.80;99.90;;;;;;5075119;28;20039;-45
2023/01/24 04:38:25;;;;;;;16.13;13.48;;;2.80;99.90;;;;;;5092930;28;20433;-47
2023/01/24 04:40:59;;;;;;;18.65;14.90;;;2.80;99.90;;;;;;5074197;28;20055;-46
2023/01/24 04:43:24;;;;;;;16.88;13.75;;;2.80;99.90;;;;;;5093289;28;20071;-46
2023/01/24 04:45:53;;;;;;;22.35;16.90;;;2.80;99.90;;;;;;5094396;28;20143;-49
2023/01/24 04:48:19;;;;;;;19.40;14.52;;;2.80;99.90;;;;;;5075058;28;20097;-45
2023/01/24 04:50:45;;;;;;;21.17;15.40;;;2.80;99.90;;;;;;5093714;28;20047;-46
2023/01/24 04:53:10;;;;;;;20.17;15.52;;;2.80;99.90;;;;;;5094128;28;20073;-44
2023/01/24 04:55:36;;;;;;;19.65;15.35;;;2.80;99.90;;;;;;5093460;28;20090;-47
2023/01/24 04:58:01;;;;;;;19.67;14.63;;;2.80;99.90;;;;;;5093058;28;20083;-47
2023/01/24 05:00:27;;;;;;;19.00;14.68;;;2.70;99.90;;;;;;5092781;28;20079;-44
2023/01/24 05:02:53;;;;;;;20.00;16.15;;;2.80;99.90;;;;;;5092642;28;20047;-44
2023/01/24 05:05:18;;;;;;;23.98;17.73;;;2.80;99.90;;;;;;5091859;28;20110;-46
2023/01/24 05:07:44;;;;;;;21.80;15.48;;;2.70;99.90;;;;;;5092966;28;20047;-46
2023/01/24 05:10:10;;;;;;;21.60;15.85;;;2.70;99.90;;;;;;5093049;28;20356;-47
2023/01/24 05:12:36;;;;;;;20.65;16.90;;;2.70;99.90;;;;;;5093435;28;20048;-47
2023/01/24 05:15:01;;;;;;;20.92;16.27;;;2.80;99.90;;;;;;5093053;28;20047;-47
2023/01/24 05:17:27;;;;;;;21.35;16.23;;;2.70;99.90;;;;;;5095581;28;20044;-46
2023/01/24 05:19:52;;;;;;;22.95;17.50;;;2.70;99.90;;;;;;5096346;28;20402;-47
2023/01/24 05:22:18;;;;;;;20.20;15.70;;;2.70;99.90;;;;;;5096392;28;20144;-46
2023/01/24 05:24:44;;;;;;;23.80;17.23;;;2.70;99.90;;;;;;5097050;28;20291;-45
2023/01/24 05:27:09;;;;;;;23.05;17.80;;;2.70;99.90;;;;;;5096257;28;20043;-44
2023/01/24 05:29:35;;;;;;;24.15;16.95;;;2.70;99.90;;;;;;5096671;28;20054;-46
2023/01/24 05:32:01;;;;;;;23.70;17.40;;;2.70;99.90;;;;;;5096643;28;20691;-46
2023/01/24 05:34:26;;;;;;;23.13;18.20;;;2.70;99.90;;;;;;5097022;28;20517;-45
2023/01/24 05:36:52;;;;;;;22.42;17.63;;;2.60;99.90;;;;;;5097120;28;20305;-44
2023/01/24 05:39:18;;;;;;;26.58;18.63;;;2.60;99.90;;;;;;5097240;28;20104;-45
2023/01/24 05:41:43;;;;;;;24.33;18.10;;;2.60;99.90;;;;;;5096780;28;20043;-47
2023/01/24 05:44:09;;;;;;;25.13;19.08;;;2.60;99.90;;;;;;5096923;28;20040;-44
2023/01/24 05:46:35;;;;;;;25.88;18.60;;;2.60;99.90;;;;;;5096420;28;20085;-44
2023/01/24 05:49:00;;;;;;;25.73;19.58;;;2.60;99.90;;;;;;5078367;28;20108;-43
2023/01/24 05:51:26;;;;;;;26.20;19.42;;;2.60;99.90;;;;;;5096371;28;20043;-45
2023/01/24 05:53:52;;;;;;;25.10;19.60;;;2.60;99.90;;;;;;5096895;28;20097;-49
2023/01/24 05:56:19;;;;;;;26.05;19.80;;;2.60;99.90;;;;;;5096216;28;20489;-46
2023/01/24 05:58:46;;;;;;;26.40;20.23;;;2.60;99.90;;;;;;5061249;28;20339;-46
2023/01/24 06:01:18;;;;;;;24.15;19.02;;;2.60;99.90;;;;;;5095571;28;20086;-49
2023/01/24 06:03:46;;;;;;;28.38;19.63;;;2.60;99.90;;;;;;5096822;28;20063;-50
2023/01/24 06:06:13;;;;;;;31.63;22.08;;;2.60;99.90;;;;;;5095992;28;20066;-50
2023/01/24 06:08:40;;;;;;;31.33;21.67;;;2.60;99.90;;;;;;5078051;28;20047;-48
2023/01/24 06:11:12;;;;;;;31.27;21.50;;;2.60;99.90;;;;;;5096067;28;20131;-47
2023/01/24 06:13:38;;;;;;;28.42;20.83;;;2.60;99.90;;;;;;5096652;28;20406;-47
2023/01/24 06:16:10;;;;;;;29.90;21.23;;;2.60;99.90;;;;;;5096027;28;20105;-50
2023/01/24 06:18:36;;;;;;;27.33;20.75;;;2.60;99.90;;;;;;5076016;28;20163;-46
2023/01/24 06:21:06;;;;;;;25.08;18.70;;;2.50;99.90;;;;;;5095846;28;20043;-49
2023/01/24 06:23:32;;;;;;;27.58;19.08;;;2.50;99.90;;;;;;5096178;28;20047;-46
2023/01/24 06:25:58;;;;;;;27.15;19.60;;;2.50;99.90;;;;;;5077295;28;20062;-43
2023/01/24 06:28:24;;;;;;;28.98;19.88;;;2.60;99.90;;;;;;5095570;28;20696;-44
2023/01/24 06:31:01;;;;;;;25.98;19.25;;;2.60;99.90;;;;;;5095604;28;20290;-48
2023/01/24 06:33:37;;;;;;;26.30;19.27;;;2.50;99.90;;;;;;5078090;28;20051;-48
2023/01/24 06:36:32;;;;;;;24.50;18.45;;;2.50;99.90;;;;;;5077509;28;20455;-44
2023/01/24 06:38:58;;;;;;;26.25;18.77;;;2.40;99.90;;;;;;5034647;28;20049;-44
2023/01/24 06:41:24;;;;;;;26.23;18.92;;;2.40;99.90;;;;;;5005347;28;20061;-44
2023/01/24 06:43:50;;;;;;;23.60;17.75;;;2.40;99.90;;;;;;5013476;28;20071;-44
2023/01/24 06:46:15;;;;;;;23.73;17.90;;;2.40;99.90;;;;;;5031626;28;20134;-44
2023/01/24 06:48:45;;;;;;;24.15;17.50;;;2.40;99.90;;;;;;5032475;28;20159;-44
2023/01/24 06:51:14;;;;;;;22.80;17.98;;;2.40;99.90;;;;;;5031998;28;20630;-44
2023/01/24 06:53:40;;;;;;;26.85;18.83;;;2.40;99.90;;;;;;5015013;28;20524;-45
2023/01/24 06:56:07;;;;;;;24.25;17.73;;;2.40;99.90;;;;;;5015756;28;20107;-46
2023/01/24 06:58:33;;;;;;;28.20;19.05;;;2.50;99.90;;;;;;5031259;28;20523;-44
2023/01/24 07:00:58;;;;;;;25.42;19.15;;;2.40;99.90;;;;;;5031777;28;20060;-43
2023/01/24 07:03:24;;;;;;;25.63;18.75;;;2.40;99.90;;;;;;5031845;28;20057;-43
2023/01/24 07:05:52;;;;;;;30.40;21.48;;;2.40;99.90;;;;;;5032250;28;20053;-44
2023/01/24 07:08:20;;;;;;;24.77;19.52;;;2.40;99.90;;;;;;5031142;28;20462;-46
2023/01/24 07:10:46;;;;;;;26.45;19.45;;;2.50;99.90;;;;;;5031404;28;20579;-45
2023/01/24 07:13:12;;;;;;;27.55;19.48;;;2.50;99.90;;;;;;5014970;28;20131;-49
2023/01/24 07:15:37;;;;;;;27.63;19.23;;;2.50;99.90;;;;;;5055538;28;20059;-45
2023/01/24 07:18:08;;;;;;;26.15;19.88;;;2.40;99.90;;;;;;5094851;28;20044;-44
2023/01/24 07:20:34;;;;;;;28.73;20.60;;;2.40;99.90;;;;;;5076941;28;20044;-44
2023/01/24 07:23:00;;;;;;;25.73;18.63;;;2.40;99.90;;;;;;5095945;28;20451;-44
2023/01/24 07:25:26;;;;;;;24.13;17.02;;;2.40;99.90;;;;;;5093485;28;20071;-44
2023/01/24 07:27:53;;;;;;;23.95;17.58;;;2.40;99.90;;;;;;5094900;28;20083;-44
2023/01/24 07:30:18;;;;;;;23.88;17.10;;;2.40;99.90;;;;;;5095191;28;20124;-45
2023/01/24 07:32:44;;;;;;;26.13;18.08;;;2.40;99.90;;;;;;5096075;28;20496;-43
2023/01/24 07:35:10;;;;;;;23.15;17.00;;;2.40;99.90;;;;;;5077545;28;20079;-43
2023/01/24 07:37:36;;;;;;;22.98;17.50;;;2.40;99.90;;;;;;5094319;28;20055;-45
2023/01/24 07:40:03;;;;;;;22.33;15.55;;;2.40;99.90;;;;;;5074768;28;20059;-45
2023/01/24 07:42:28;;;;;;;21.15;15.82;;;2.40;99.90;;;;;;5095198;28;20051;-44
2023/01/24 07:44:56;;;;;;;23.95;17.50;;;2.40;99.90;;;;;;5095511;28;20058;-44
2023/01/24 07:47:23;;;;;;;19.90;14.30;;;2.40;99.90;;;;;;5075965;28;20522;-47
2023/01/24 07:49:48;;;;;;;23.00;15.15;;;2.40;99.90;;;;;;5094140;28;20051;-44
2023/01/24 07:52:14;;;;;;;22.27;17.00;;;2.40;99.90;;;;;;5093814;28;20056;-45
2023/01/24 07:54:40;;;;;;;21.08;15.23;;;2.40;99.90;;;;;;5094370;28;20600;-44
2023/01/24 07:57:07;;;;;;;21.88;16.17;;;2.40;99.90;;;;;;5075452;28;20096;-47
2023/01/24 07:59:33;;;;;;;19.75;14.90;;;2.40;99.90;;;;;;5094820;28;20059;-45
2023/01/24 08:01:59;;;;;;;21.00;14.75;;;2.40;99.90;;;;;;5094337;28;20047;-45
2023/01/24 08:04:24;;;;;;;21.25;16.40;;;2.40;99.90;;;;;;5094974;28;20417;-46
2023/01/24 08:09:34;;;;;;;22.50;16.13;;;2.40;99.90;;;;;;5094190;28;20059;-45
2023/01/24 08:12:00;;;;;;;21.60;15.80;;;2.40;99.90;;;;;;5094328;28;20470;-46
2023/01/24 08:14:26;;;;;;;21.45;16.50;;;2.40;99.90;;;;;;5094190;28;20584;-45
2023/01/24 08:16:51;;;;;;;24.02;17.60;;;2.40;99.90;;;;;;5093108;28;20055;-44
2023/01/24 08:19:17;;;;;;;21.17;16.00;;;2.40;99.90;;;;;;5075721;28;20059;-44
2023/01/24 08:21:43;;;;;;;19.75;14.88;;;2.40;99.90;;;;;;5093227;28;20552;-45
2023/01/24 08:24:09;;;;;;;20.80;16.08;;;2.40;99.90;;;;;;5093411;28;20430;-47
2023/01/24 08:26:34;;;;;;;19.25;14.25;;;2.40;99.90;;;;;;5093141;28;20386;-45
2023/01/24 08:29:00;;;;;;;21.83;14.82;;;2.40;99.90;;;;;;5094039;28;20035;-45
2023/01/24 08:31:25;;;;;;;19.83;15.18;;;2.40;99.90;;;;;;5092839;28;20043;-46
2023/01/24 08:33:51;;;;;;;19.40;14.88;;;2.40;99.90;;;;;;5093357;28;20309;-44
2023/01/24 08:36:19;;;;;;;22.70;14.93;;;2.40;99.90;;;;;;5093184;28;20452;-46
2023/01/24 08:38:45;;;;;;;18.27;13.18;;;2.40;99.90;;;;;;5075004;28;20109;-44
2023/01/24 08:41:11;;;;;;;19.40;13.68;;;2.40;99.90;;;;;;5093272;28;20486;-45
2023/01/24 08:43:37;;;;;;;18.08;12.98;;;2.40;99.90;;;;;;5075481;28;20138;-47
2023/01/24 08:46:03;;;;;;;17.45;13.68;;;2.50;99.90;;;;;;5093609;28;20926;-44
2023/01/24 08:48:29;;;;;;;19.10;14.30;;;2.50;99.90;;;;;;5093555;28;20052;-46
2023/01/24 08:50:55;;;;;;;19.67;15.50;;;2.50;99.90;;;;;;5094836;28;20082;-44
2023/01/24 08:53:20;;;;;;;19.65;14.10;;;2.50;99.90;;;;;;5097639;28;20035;-46
2023/01/24 08:55:50;;;;;;;19.75;14.90;;;2.50;99.90;;;;;;5080188;28;20985;-45
2023/01/24 08:58:16;;;;;;;21.40;14.82;;;2.50;99.90;;;;;;5079178;28;20051;-44
2023/01/24 09:00:42;;;;;;;20.83;15.23;;;2.50;99.90;;;;;;5097206;28;20574;-49
2023/01/24 09:03:16;;;;;;;20.50;15.10;;;2.50;99.90;;;;;;5078586;28;20532;-45
2023/01/24 09:05:42;;;;;;;;;;;2.50;99.90;;;;;;5098061;28;20170;-48
2023/01/24 09:08:08;;;;;;;20.58;14.40;;;2.50;99.90;;;;;;5078482;28;20060;-46
2023/01/24 09:10:34;;;;;;;18.40;13.13;;;2.60;99.90;;;;;;5078204;28;20066;-46
2023/01/24 09:13:00;;;;;;;16.98;12.18;;;2.60;99.90;;;;;;5097646;28;20044;-45
2023/01/24 09:15:26;;;;;;;20.90;15.32;;;2.60;99.90;;;;;;5097164;28;20414;-46
2023/01/24 09:17:52;;;;;;;20.67;14.07;;;2.60;99.90;;;;;;5096044;28;20059;-49
2023/01/24 09:20:18;;;;;;;19.50;13.75;;;2.60;99.90;;;;;;5096486;28;20489;-47
2023/01/24 09:22:44;;;;;;;18.05;13.20;;;2.60;99.90;;;;;;5078147;28;20486;-46
2023/01/24 09:25:10;;;;;;;19.20;13.45;;;2.60;99.90;;;;;;5096974;28;20121;-45
2023/01/24 09:27:37;;;;;;;20.85;13.65;;;2.60;99.90;;;;;;5096442;28;20086;-46
2023/01/24 09:30:07;;;;;;;18.13;14.27;;;2.60;99.90;;;;;;5097065;28;20053;-48
2023/01/24 09:32:33;;;;;;;20.05;14.40;;;2.60;99.90;;;;;;5078183;28;20502;-44
2023/01/24 09:34:59;;;;;;;19.13;14.20;;;2.60;99.90;;;;;;5078668;28;20059;-46
2023/01/24 09:37:24;;;;;;;20.55;14.35;;;2.70;99.90;;;;;;5096253;28;20056;-45
2023/01/24 09:39:50;;;;;;;19.95;14.50;;;2.70;99.90;;;;;;5096827;28;20423;-46
2023/01/24 09:42:28;;;;;;;19.20;14.70;;;2.60;99.90;;;;;;5096595;28;20056;-46
2023/01/24 09:45:04;;;;;;;20.15;13.95;;;2.60;99.90;;;;;;5085113;28;20052;-44
2023/01/24 09:47:50;;;;;;;17.60;14.60;;;2.60;99.90;;;;;;5095275;28;20055;-48
2023/01/24 09:50:33;;;;;;;20.02;14.20;;;2.60;99.90;;;;;;5095897;28;20100;-45
2023/01/24 09:52:59;;;;;;;19.70;14.25;;;2.60;99.90;;;;;;5096740;28;20070;-45
2023/01/24 09:55:39;;;;;;;19.90;14.90;;;2.60;99.90;;;;;;5095862;28;20054;-48
2023/01/24 09:58:28;;;;;;;18.98;13.65;;;2.60;99.90;;;;;;5095350;28;20043;-49
2023/01/24 10:00:54;;;;;;;16.08;12.38;;;2.70;99.90;;;;;;5095281;28;20056;-48
2023/01/24 10:03:22;;;;;;;17.75;13.68;;;2.70;99.90;;;;;;5077291;28;20130;-49
2023/01/24 10:05:51;;;;;;;19.38;14.35;;;2.60;99.90;;;;;;5095827;28;20108;-50
2023/01/24 10:08:25;;;;;;;19.92;14.07;;;2.70;99.90;;;;;;5077777;28;20815;-48
2023/01/24 10:10:51;;;;;;;20.05;14.65;;;2.70;99.90;;;;;;5095864;28;20133;-45
2023/01/24 10:13:30;;;;;;;18.77;14.02;;;2.70;99.90;;;;;;5096525;28;20085;-45
2023/01/24 10:16:11;;;;;;;16.52;12.90;;;2.60;99.90;;;;;;5077427;28;20056;-47
2023/01/24 10:18:48;;;;;;;18.88;14.00;;;2.60;99.90;;;;;;5075526;28;20055;-49
2023/01/24 10:21:20;;;;;;;18.80;14.25;;;2.60;99.90;;;;;;5095214;28;20215;-47
2023/01/24 10:23:56;;;;;;;17.80;13.38;;;2.60;99.90;;;;;;5096111;28;20563;-49
2023/01/24 10:26:42;;;;;;;20.58;14.70;;;2.70;99.90;;;;;;5077088;28;20063;-49
2023/01/24 10:29:35;;;;;;;18.08;13.70;;;2.60;99.90;;;;;;5095628;28;20056;-46
2023/01/24 10:32:26;;;;;;;19.02;13.85;;;2.60;99.90;;;;;;5032240;28;20443;-46
2023/01/24 10:35:02;;;;;;;21.75;14.50;;;2.70;99.90;;;;;;5031742;28;20153;-46
2023/01/24 10:37:37;;;;;;;19.92;13.55;;;2.60;99.90;;;;;;5031383;28;20061;-45
2023/01/24 10:40:14;;;;;;;17.00;13.52;;;2.60;99.90;;;;;;4998788;28;20092;-47
2023/01/24 10:42:39;;;;;;;18.80;12.98;;;2.60;99.90;;;;;;5015310;28;20307;-45
2023/01/24 10:45:34;;;;;;;19.70;13.48;;;2.60;99.90;;;;;;5015640;28;20053;-45
2023/01/24 10:48:10;;;;;;;20.20;15.07;;;2.60;99.90;;;;;;5031625;28;20059;-46
2023/01/24 10:50:41;;;;;;;18.38;13.90;;;2.60;99.90;;;;;;5030985;28;20100;-46
2023/01/24 10:53:25;;;;;;;18.08;13.32;;;2.60;99.90;;;;;;5032214;28;20045;-45
2023/01/24 10:56:04;;;;;;;15.85;12.93;;;2.60;99.90;;;;;;5031464;28;20151;-44
2023/01/24 10:59:00;;;;;;;16.92;13.43;;;2.60;99.90;;;;;;5031874;28;20606;-45
2023/01/24 11:01:59;;;;;;;19.73;14.02;;;2.70;99.90;;;;;;5031753;28;20135;-46
2023/01/24 11:04:29;;;;;;;17.00;12.60;;;2.70;99.90;;;;;;4934487;29;20051;-46
2023/01/24 11:06:56;;;;;;;17.25;12.98;;;2.70;99.90;;;;;;4904868;29;20081;-45
2023/01/24 11:09:29;;;;;;;18.55;13.88;;;2.70;99.90;;;;;;4954139;28;20062;-45
2023/01/24 11:11:57;;;;;;;17.85;13.75;;;2.70;99.90;;;;;;4992518;28;20062;-45
2023/01/24 11:14:28;;;;;;;21.42;14.35;;;2.70;99.90;;;;;;4990768;28;20069;-47
2023/01/24 11:16:56;;;;;;;17.20;13.10;;;2.70;99.90;;;;;;4991020;28;20060;-47
2023/01/24 11:19:32;;;;;;;18.15;14.57;;;2.70;99.90;;;;;;4990902;28;20057;-46
2023/01/24 11:22:03;;;;;;;18.15;13.18;;;2.70;99.90;;;;;;4991408;28;20054;-47
2023/01/24 11:24:29;;;;;;;19.20;14.90;;;2.70;99.90;;;;;;4992128;28;20520;-45
2023/01/24 11:26:57;;;;;;;20.02;13.93;;;2.70;99.90;;;;;;4991437;28;20542;-44
2023/01/24 11:29:24;;;;;;;19.58;15.07;;;2.70;99.90;;;;;;4990237;28;20514;-46
2023/01/24 11:31:56;;;;;;;20.83;14.23;;;2.80;99.90;;;;;;4991304;28;20128;-47
2023/01/24 11:34:48;;;;;;;21.15;13.95;;;2.80;99.90;;;;;;4991388;28;20606;-44
2023/01/24 11:37:25;;;;;;;20.65;14.35;;;2.80;99.90;;;;;;4990768;28;20053;-45
2023/01/24 11:40:13;;;;;;;17.60;13.85;;;2.70;99.90;;;;;;5025250;28;20051;-48
2023/01/24 11:42:41;;;;;;;21.75;14.32;;;2.80;99.90;;;;;;5064894;28;20079;-45
2023/01/24 11:45:12;;;;;;;19.33;14.95;;;2.80;99.90;;;;;;5094347;28;20093;-45
2023/01/24 11:47:58;;;;;;;17.90;13.65;;;2.80;99.90;;;;;;5093388;28;20051;-47
2023/01/24 11:51:13;;;;;;;16.95;13.57;;;2.80;99.90;;;;;;5074586;28;20054;-46
2023/01/24 11:54:04;;;;;;;18.10;13.18;;;2.80;99.90;;;;;;5000878;28;20053;-46
2023/01/24 11:57:05;;;;;;;17.98;13.38;;;2.90;99.90;;;;;;4913646;29;20072;-46
2023/01/24 11:59:50;;;;;;;16.77;13.00;;;2.90;99.90;;;;;;4876341;29;20637;-49
2023/01/24 12:02:39;;;;;;;18.00;13.70;;;2.90;99.90;;;;;;4876381;29;20056;-45
2023/01/24 12:05:18;;;;;;;17.38;13.85;;;2.90;99.90;;;;;;4876176;29;20144;-45
2023/01/24 12:08:05;;;;;;;16.38;12.43;;;2.90;99.90;;;;;;4875377;29;20092;-46
2023/01/24 12:10:59;;;;;;;18.40;14.18;;;2.80;99.90;;;;;;4875736;29;20083;-46
2023/01/24 12:13:43;;;;;;;;;;;2.80;99.90;;;;;;4876763;29;20060;-43
2023/01/24 12:16:27;;;;;;;19.13;13.77;;;2.80;99.90;;;;;;4874308;29;20011;-47
2023/01/24 12:19:11;;;;;;;15.13;12.85;;;2.80;99.90;;;;;;4869176;29;20195;-48
2023/01/24 12:21:37;;;;;;;19.10;13.40;;;2.90;99.90;;;;;;4875179;29;20059;-46
2023/01/24 12:24:11;;;;;;;19.35;14.60;;;2.90;99.90;;;;;;4884094;29;20413;-47
2023/01/24 12:26:48;;;;;;;18.60;14.48;;;2.90;99.90;;;;;;4875011;29;20061;-46
2023/01/24 12:29:32;;;;;;;17.67;13.57;;;2.90;99.90;;;;;;4884612;29;20115;-45
2023/01/24 12:32:21;;;;;;;16.30;12.50;;;2.90;99.90;;;;;;4913432;29;20061;-45
2023/01/24 12:35:27;;;;;;;18.50;14.30;;;3.00;99.90;;;;;;5036892;28;20515;-45
2023/01/24 12:38:24;;;;;;;19.52;14.20;;;3.00;99.90;;;;;;5089216;28;20396;-48
2023/01/24 12:41:14;;;;;;;17.23;13.05;;;3.00;99.90;;;;;;5093357;28;20059;-44
2023/01/24 12:43:59;;;;;;;18.25;13.45;;;3.00;99.90;;;;;;5075285;28;20044;-44
2023/01/24 12:46:32;;;;;;;18.60;13.98;;;2.90;99.90;;;;;;5074604;28;20047;-45
2023/01/24 12:49:10;;;;;;;;;;;3.00;99.90;;;;;;5093863;28;20494;-45
2023/01/24 12:51:45;;;;;;;18.23;13.52;;;3.00;99.90;;;;;;5093745;28;19924;-46
2023/01/24 12:54:13;;;;;;;17.52;12.48;;;2.90;99.90;;;;;;5093610;28;20642;-45
2023/01/24 12:56:59;;;;;;;17.27;13.30;;;2.90;99.90;;;;;;5093587;28;20044;-44
2023/01/24 12:59:28;;;;;;;19.52;13.60;;;3.00;99.90;;;;;;5075472;28;20074;-45
2023/01/24 13:02:01;;;;;;;16.77;13.90;;;2.90;99.90;;;;;;5093746;28;20053;-47
2023/01/24 13:04:50;;;;;;;18.38;14.68;;;2.90;99.90;;;;;;5094016;28;20047;-45
2023/01/24 13:07:22;;;;;;;16.08;12.95;;;2.90;99.90;;;;;;5091263;28;20043;-46
2023/01/24 13:10:12;;;;;;;17.17;14.50;;;2.90;99.90;;;;;;5072801;28;20040;-47
2023/01/24 13:12:40;;;;;;;19.25;15.07;;;2.90;99.90;;;;;;5068240;28;20968;-48
2023/01/24 13:15:17;;;;;;;20.23;13.95;;;2.90;99.90;;;;;;5068766;28;20047;-45
2023/01/24 13:18:01;;;;;;;20.85;14.63;;;2.90;99.90;;;;;;5050239;28;20488;-46
2023/01/24 13:20:53;;;;;;;17.27;13.73;;;2.90;99.90;;;;;;5092584;28;20043;-47
2023/01/24 13:23:49;;;;;;;17.02;13.40;;;2.90;99.90;;;;;;5089997;28;20066;-46
2023/01/24 13:26:32;;;;;;;18.15;14.68;;;2.90;99.90;;;;;;5091661;28;20081;-45
2023/01/24 13:29:16;;;;;;;18.08;14.02;;;2.90;99.90;;;;;;5092398;28;20087;-47
2023/01/24 13:32:12;;;;;;;17.77;14.48;;;2.90;99.90;;;;;;5082423;28;20094;-47
2023/01/24 13:34:52;;;;;;;19.98;14.18;;;2.90;99.90;;;;;;5061191;28;20661;-46
2023/01/24 13:37:33;;;;;;;20.33;14.45;;;2.90;99.90;;;;;;5091494;28;20039;-45
2023/01/24 13:40:04;;;;;;;20.13;14.30;;;2.90;99.90;;;;;;5077866;28;20518;-46